createdAt,value
2019-01-28T00:01:09.037Z,87.93
2019-01-28T00:03:36.825Z,87.80
2019-01-28T00:06:04.757Z,87.91
2019-01-28T00:08:32.527Z,87.81
2019-01-28T00:10:59.794Z,87.77
2019-01-28T00:13:27.538Z,87.85
2019-01-28T00:15:55.378Z,87.80
2019-01-28T00:18:23.083Z,87.62
2019-01-28T00:20:50.488Z,87.81
2019-01-28T00:23:17.943Z,87.88
2019-01-28T00:25:45.342Z,87.84
2019-01-28T00:28:13.554Z,87.87
2019-01-28T00:30:41.073Z,87.65
2019-01-28T00:33:09.070Z,87.77
2019-01-28T00:35:36.435Z,87.50
2019-01-28T00:38:04.054Z,87.43
2019-01-28T00:40:31.491Z,87.52
2019-01-28T00:42:59.646Z,87.59
2019-01-28T00:45:27.054Z,87.66
2019-01-28T00:47:54.410Z,87.52
2019-01-28T00:50:22.092Z,87.50
2019-01-28T00:52:49.613Z,87.47
2019-01-28T00:55:17.218Z,87.51
2019-01-28T00:57:44.939Z,87.72
2019-01-28T01:00:17.371Z,87.64
2019-01-28T01:02:44.857Z,87.90
2019-01-28T01:05:12.689Z,87.73
2019-01-28T01:07:40.473Z,87.79
2019-01-28T01:10:09.098Z,87.85
2019-01-28T01:12:36.299Z,87.87
2019-01-28T01:15:07.198Z,87.98
2019-01-28T01:17:35.231Z,87.79
2019-01-28T01:20:04.203Z,87.56
2019-01-28T01:22:31.430Z,87.69
2019-01-28T01:24:58.914Z,87.69
2019-01-28T01:27:26.313Z,87.55
2019-01-28T01:29:54.045Z,87.61
2019-01-28T01:32:21.993Z,87.81
2019-01-28T01:34:49.425Z,87.67
2019-01-28T01:37:17.190Z,87.56
2019-01-28T01:39:47.510Z,87.36
2019-01-28T01:42:15.101Z,87.54
2019-01-28T01:44:42.480Z,87.51
2019-01-28T01:47:09.630Z,87.61
2019-01-28T01:49:37.263Z,87.55
2019-01-28T01:52:04.490Z,87.50
2019-01-28T01:54:31.950Z,87.43
2019-01-28T01:56:59.449Z,87.43
2019-01-28T01:59:26.595Z,87.43
2019-01-28T02:01:54.435Z,87.35
2019-01-28T02:04:21.582Z,87.36
2019-01-28T02:06:49.207Z,87.29
2019-01-28T02:09:16.443Z,87.25
2019-01-28T02:11:43.895Z,87.05
2019-01-28T02:14:11.460Z,87.27
2019-01-28T02:16:39.777Z,87.00
2019-01-28T02:19:07.438Z,86.78
2019-01-28T02:21:37.726Z,86.93
2019-01-28T02:24:05.301Z,86.98
2019-01-28T02:26:32.596Z,86.62
2019-01-28T02:29:00.727Z,86.66
2019-01-28T02:31:28.084Z,86.72
2019-01-28T02:33:55.839Z,86.82
2019-01-28T02:36:23.262Z,86.78
2019-01-28T02:38:50.637Z,86.70
2019-01-28T02:41:18.350Z,86.59
2019-01-28T02:43:46.001Z,86.66
2019-01-28T02:46:13.469Z,86.44
2019-01-28T02:48:41.395Z,86.60
2019-01-28T02:51:09.205Z,86.60
2019-01-28T02:53:36.904Z,86.56
2019-01-28T02:56:04.457Z,86.31
2019-01-28T02:58:31.962Z,86.25
2019-01-28T03:00:59.633Z,85.84
2019-01-28T03:03:27.262Z,86.72
2019-01-28T03:05:54.667Z,86.31
2019-01-28T03:08:22.385Z,86.17
2019-01-28T03:10:50.118Z,86.21
2019-01-28T03:13:17.431Z,86.12
2019-01-28T03:15:45.168Z,85.94
2019-01-28T03:18:13.104Z,86.08
2019-01-28T03:20:41.369Z,86.16
2019-01-28T03:23:10.271Z,86.01
2019-01-28T03:25:38.166Z,86.15
2019-01-28T03:28:05.554Z,86.17
2019-01-28T03:30:32.939Z,86.07
2019-01-28T03:33:00.616Z,86.26
2019-01-28T03:35:28.310Z,86.07
2019-01-28T03:37:55.877Z,86.44
2019-01-28T03:40:23.121Z,86.21
2019-01-28T03:42:51.389Z,86.23
2019-01-28T03:45:20.763Z,86.20
2019-01-28T03:47:48.542Z,86.33
2019-01-28T03:50:17.608Z,86.58
2019-01-28T03:52:46.289Z,86.43
2019-01-28T03:55:14.171Z,86.17
2019-01-28T03:57:42.505Z,86.39
2019-01-28T04:00:14.756Z,86.49
2019-01-28T04:02:42.524Z,86.39
2019-01-28T04:05:10.321Z,86.42
2019-01-28T04:07:37.795Z,86.20
2019-01-28T04:10:08.673Z,86.20
2019-01-28T04:12:36.134Z,86.18
2019-01-28T04:15:05.508Z,86.44
2019-01-28T04:17:32.607Z,86.57
2019-01-28T04:20:00.512Z,86.35
2019-01-28T04:22:28.000Z,86.64
2019-01-28T04:24:55.293Z,86.51
2019-01-28T04:27:22.925Z,86.59
2019-01-28T04:29:50.482Z,86.40
2019-01-28T04:32:18.117Z,86.42
2019-01-28T04:34:45.674Z,86.66
2019-01-28T04:37:13.197Z,86.37
2019-01-28T04:39:40.915Z,86.41
2019-01-28T04:42:08.779Z,86.47
2019-01-28T04:44:35.947Z,86.45
2019-01-28T04:47:03.402Z,86.35
2019-01-28T04:49:31.340Z,86.05
2019-01-28T04:52:00.250Z,86.28
2019-01-28T04:54:28.622Z,86.22
2019-01-28T04:56:55.893Z,86.09
2019-01-28T04:59:23.279Z,86.12
2019-01-28T05:01:51.311Z,86.26
2019-01-28T05:04:18.946Z,86.38
2019-01-28T05:06:46.340Z,86.46
2019-01-28T05:09:14.174Z,86.48
2019-01-28T05:11:41.756Z,86.60
2019-01-28T05:14:08.875Z,86.59
2019-01-28T05:16:36.504Z,86.77
2019-01-28T05:19:03.883Z,86.95
2019-01-28T05:21:31.130Z,86.89
2019-01-28T05:23:58.729Z,87.07
2019-01-28T05:26:26.919Z,87.01
2019-01-28T05:28:54.343Z,87.05
2019-01-28T05:31:21.693Z,86.89
2019-01-28T05:33:49.625Z,87.08
2019-01-28T05:36:17.157Z,87.05
2019-01-28T05:38:44.388Z,87.15
2019-01-28T05:41:12.495Z,87.01
2019-01-28T05:43:40.255Z,86.98
2019-01-28T05:46:07.894Z,87.10
2019-01-28T05:48:35.527Z,87.11
2019-01-28T05:51:03.009Z,87.20
2019-01-28T05:53:30.610Z,87.17
2019-01-28T05:55:58.479Z,87.05
2019-01-28T05:58:26.098Z,87.64
2019-01-28T06:00:53.450Z,87.09
2019-01-28T06:03:20.554Z,87.15
2019-01-28T06:05:47.904Z,87.19
2019-01-28T06:08:15.624Z,87.28
2019-01-28T06:10:43.102Z,87.37
2019-01-28T06:13:10.818Z,87.38
2019-01-28T06:15:38.175Z,87.51
2019-01-28T06:18:05.942Z,87.40
2019-01-28T06:20:33.402Z,87.38
2019-01-28T06:23:00.779Z,87.65
2019-01-28T06:25:28.274Z,87.38
2019-01-28T06:27:55.662Z,87.39
2019-01-28T06:30:26.557Z,87.56
2019-01-28T06:32:54.031Z,87.53
2019-01-28T06:35:21.533Z,87.59
2019-01-28T06:37:49.268Z,87.88
2019-01-28T06:40:20.272Z,87.76
2019-01-28T06:42:48.319Z,87.73
2019-01-28T06:45:16.680Z,87.69
2019-01-28T06:47:46.872Z,87.84
2019-01-28T06:50:16.322Z,87.81
2019-01-28T06:52:43.702Z,87.77
2019-01-28T06:55:11.391Z,88.25
2019-01-28T06:57:39.212Z,87.95
2019-01-28T07:00:15.456Z,87.95
2019-01-28T07:02:42.814Z,88.04
2019-01-28T07:05:10.949Z,88.24
2019-01-28T07:07:38.177Z,88.28
2019-01-28T07:10:05.997Z,88.41
2019-01-28T07:12:33.283Z,88.60
2019-01-28T07:15:00.503Z,88.61
2019-01-28T07:17:27.775Z,88.80
2019-01-28T07:19:55.377Z,88.93
2019-01-28T07:22:23.131Z,88.95
2019-01-28T07:24:50.859Z,89.02
2019-01-28T07:27:18.455Z,88.91
2019-01-28T07:29:46.433Z,88.84
2019-01-28T07:32:14.135Z,88.95
2019-01-28T07:34:41.280Z,89.07
2019-01-28T07:37:09.094Z,88.99
2019-01-28T07:39:36.203Z,89.26
2019-01-28T07:42:07.276Z,89.14
2019-01-28T07:44:34.880Z,89.10
2019-01-28T07:47:02.703Z,89.15
2019-01-28T07:49:30.085Z,89.29
2019-01-28T07:51:57.749Z,89.11
2019-01-28T07:54:25.080Z,89.28
2019-01-28T07:56:52.663Z,89.34
2019-01-28T07:59:19.980Z,89.49
2019-01-28T08:01:47.700Z,89.21
2019-01-28T08:04:15.987Z,89.35
2019-01-28T08:06:43.899Z,89.23
2019-01-28T08:09:11.669Z,89.55
2019-01-28T08:11:38.902Z,89.64
2019-01-28T08:14:06.548Z,89.54
2019-01-28T08:16:34.675Z,89.64
2019-01-28T08:19:02.149Z,89.55
2019-01-28T08:21:29.852Z,89.40
2019-01-28T08:23:57.350Z,89.48
2019-01-28T08:26:24.608Z,89.34
2019-01-28T08:28:51.961Z,89.41
2019-01-28T08:31:19.583Z,89.33
2019-01-28T08:33:47.214Z,89.41
2019-01-28T08:36:15.441Z,89.40
2019-01-28T08:38:42.930Z,89.41
2019-01-28T08:41:10.187Z,89.25
2019-01-28T08:43:38.263Z,89.24
2019-01-28T08:46:05.988Z,89.66
2019-01-28T08:48:33.458Z,89.42
2019-01-28T08:51:00.842Z,89.42
2019-01-28T08:53:28.460Z,89.59
2019-01-28T08:55:56.697Z,89.86
2019-01-28T08:58:24.649Z,89.52
2019-01-28T09:00:52.645Z,89.35
2019-01-28T09:03:20.046Z,89.29
2019-01-28T09:05:47.542Z,89.75
2019-01-28T09:08:15.290Z,89.73
2019-01-28T09:10:43.525Z,89.37
2019-01-28T09:13:10.978Z,89.46
2019-01-28T09:15:38.805Z,89.85
2019-01-28T09:18:09.090Z,89.57
2019-01-28T09:20:36.649Z,89.81
2019-01-28T09:23:04.112Z,89.87
2019-01-28T09:25:31.332Z,89.90
2019-01-28T09:27:59.078Z,89.86
2019-01-28T09:30:29.478Z,90.17
2019-01-28T09:32:56.994Z,89.63
2019-01-28T09:35:25.261Z,89.75
2019-01-28T09:37:52.614Z,89.66
2019-01-28T09:40:22.140Z,89.74
2019-01-28T09:42:50.054Z,89.99
2019-01-28T09:45:21.354Z,89.96
2019-01-28T09:47:49.005Z,89.87
2019-01-28T09:50:17.365Z,89.95
2019-01-28T09:52:47.077Z,89.99
2019-01-28T09:55:14.886Z,90.00
2019-01-28T09:57:42.720Z,90.10
2019-01-28T10:00:21.049Z,90.12
2019-01-28T10:02:48.647Z,90.04
2019-01-28T10:05:17.229Z,89.99
2019-01-28T10:07:45.278Z,89.99
2019-01-28T10:10:15.182Z,89.73
2019-01-28T10:12:43.066Z,89.85
2019-01-28T10:15:13.712Z,89.86
2019-01-28T10:17:41.489Z,90.05
2019-01-28T10:20:18.166Z,90.64
2019-01-28T10:22:45.529Z,89.98
2019-01-28T10:25:14.535Z,90.21
2019-01-28T10:27:42.287Z,89.97
2019-01-28T10:30:12.549Z,90.05
2019-01-28T10:32:40.827Z,90.40
2019-01-28T10:35:10.793Z,89.67
2019-01-28T10:37:38.484Z,89.72
2019-01-28T10:40:08.837Z,89.83
2019-01-28T10:42:36.204Z,90.16
2019-01-28T10:45:05.529Z,90.08
2019-01-28T10:47:32.988Z,90.00
2019-01-28T10:50:00.285Z,90.36
2019-01-28T10:52:27.939Z,89.87
2019-01-28T10:54:56.038Z,90.02
2019-01-28T10:57:23.767Z,90.15
2019-01-28T10:59:51.402Z,90.16
2019-01-28T11:02:19.065Z,90.23
2019-01-28T11:04:47.435Z,89.97
2019-01-28T11:07:14.871Z,90.06
2019-01-28T11:09:42.353Z,89.94
2019-01-28T11:12:09.757Z,90.36
2019-01-28T11:14:37.373Z,89.93
2019-01-28T11:17:05.323Z,90.14
2019-01-28T11:19:33.267Z,90.54
2019-01-28T11:22:01.155Z,90.26
2019-01-28T11:24:28.809Z,90.07
2019-01-28T11:26:56.584Z,90.10
2019-01-28T11:29:24.513Z,90.34
2019-01-28T11:31:51.594Z,90.05
2019-01-28T11:34:19.802Z,89.96
2019-01-28T11:36:47.726Z,90.25
2019-01-28T11:39:15.586Z,90.03
2019-01-28T11:41:42.756Z,90.12
2019-01-28T11:44:11.085Z,89.81
2019-01-28T11:46:39.098Z,89.56
2019-01-28T11:49:07.114Z,90.05
2019-01-28T11:51:35.533Z,89.98
2019-01-28T11:54:03.271Z,89.94
2019-01-28T11:56:30.633Z,90.52
2019-01-28T11:58:57.781Z,90.16
2019-01-28T12:01:28.553Z,89.92
2019-01-28T12:03:56.192Z,90.11
2019-01-28T12:06:24.251Z,90.07
2019-01-28T12:08:52.222Z,90.12
2019-01-28T12:11:19.972Z,89.92
2019-01-28T12:13:47.584Z,90.09
2019-01-28T12:16:16.015Z,89.90
2019-01-28T12:18:43.801Z,90.08
2019-01-28T12:21:11.206Z,90.08
2019-01-28T12:23:40.264Z,90.29
2019-01-28T12:26:08.377Z,90.02
2019-01-28T12:28:35.874Z,89.68
2019-01-28T12:31:03.831Z,90.06
2019-01-28T12:33:32.043Z,90.21
2019-01-28T12:35:59.575Z,89.98
2019-01-28T12:38:26.984Z,90.05
2019-01-28T12:40:54.478Z,89.94
2019-01-28T12:43:21.983Z,90.44
2019-01-28T12:45:50.331Z,90.22
2019-01-28T12:48:18.248Z,89.84
2019-01-28T12:50:46.377Z,89.88
2019-01-28T12:53:14.062Z,89.66
2019-01-28T12:55:41.778Z,89.79
2019-01-28T12:58:09.578Z,89.71
2019-01-28T13:00:42.223Z,89.58
2019-01-28T13:03:11.081Z,89.66
2019-01-28T13:05:39.341Z,89.62
2019-01-28T13:08:08.322Z,89.10
2019-01-28T13:10:35.791Z,90.05
2019-01-28T13:13:03.913Z,89.82
2019-01-28T13:15:31.762Z,88.92
2019-01-28T13:17:59.761Z,88.73
2019-01-28T13:20:28.522Z,88.87
2019-01-28T13:22:57.708Z,89.84
2019-01-28T13:25:26.882Z,89.75
2019-01-28T13:27:54.595Z,89.80
2019-01-28T13:30:27.574Z,89.58
2019-01-28T13:32:56.410Z,89.69
2019-01-28T13:35:23.992Z,89.66
2019-01-28T13:37:51.298Z,89.55
2019-01-28T13:40:18.989Z,89.14
2019-01-28T13:42:46.901Z,88.82
2019-01-28T13:45:16.927Z,88.56
2019-01-28T13:47:45.834Z,89.69
2019-01-28T13:50:18.158Z,89.35
2019-01-28T13:52:46.528Z,88.95
2019-01-28T13:55:15.021Z,89.66
2019-01-28T13:57:42.481Z,89.08
2019-01-28T14:00:15.721Z,89.40
2019-01-28T14:02:43.282Z,88.56
2019-01-28T14:05:11.055Z,87.74
2019-01-28T14:07:38.920Z,87.73
2019-01-28T14:10:08.887Z,89.21
2019-01-28T14:12:36.420Z,88.73
2019-01-28T14:15:07.331Z,87.92
2019-01-28T14:17:34.968Z,86.72
2019-01-28T14:20:03.171Z,86.30
2019-01-28T14:22:30.767Z,88.56
2019-01-28T14:24:58.266Z,87.52
2019-01-28T14:27:25.747Z,87.91
2019-01-28T14:29:53.093Z,87.99
2019-01-28T14:32:20.465Z,87.90
2019-01-28T14:34:47.923Z,88.34
2019-01-28T14:37:15.257Z,88.58
2019-01-28T14:39:42.620Z,87.03
2019-01-28T14:42:10.010Z,87.49
2019-01-28T14:44:37.673Z,85.60
2019-01-28T14:47:05.411Z,85.97
2019-01-28T14:49:33.036Z,86.30
2019-01-28T14:52:00.293Z,86.76
2019-01-28T14:54:27.917Z,84.51
2019-01-28T14:56:55.385Z,86.91
2019-01-28T14:59:22.641Z,87.11
2019-01-28T15:01:50.262Z,88.16
2019-01-28T15:04:17.748Z,86.68
2019-01-28T15:06:45.156Z,86.70
2019-01-28T15:09:12.871Z,87.87
2019-01-28T15:11:40.547Z,88.18
2019-01-28T15:14:08.007Z,88.19
2019-01-28T15:16:36.022Z,86.09
2019-01-28T15:19:04.364Z,86.73
2019-01-28T15:21:31.853Z,87.27
2019-01-28T15:23:59.403Z,87.69
2019-01-28T15:26:26.992Z,86.78
2019-01-28T15:28:54.924Z,85.27
2019-01-28T15:31:22.752Z,86.64
2019-01-28T15:33:50.270Z,87.55
2019-01-28T15:36:17.748Z,86.87
2019-01-28T15:38:45.185Z,85.84
2019-01-28T15:41:12.450Z,86.41
2019-01-28T15:43:39.967Z,86.34
2019-01-28T15:46:07.591Z,87.43
2019-01-28T15:48:35.021Z,87.42
2019-01-28T15:51:03.589Z,85.53
2019-01-28T15:53:31.712Z,85.35
2019-01-28T15:55:58.865Z,85.54
2019-01-28T15:58:26.267Z,86.00
2019-01-28T16:00:53.682Z,85.56
2019-01-28T16:03:21.943Z,86.78
2019-01-28T16:05:49.199Z,87.05
2019-01-28T16:08:16.748Z,87.73
2019-01-28T16:10:44.714Z,87.18
2019-01-28T16:13:12.561Z,87.60
2019-01-28T16:15:43.983Z,86.35
2019-01-28T16:18:12.217Z,86.47
2019-01-28T16:20:40.040Z,86.85
2019-01-28T16:23:08.210Z,86.66
2019-01-28T16:25:35.755Z,87.45
2019-01-28T16:28:05.341Z,88.36
2019-01-28T16:30:33.878Z,85.65
2019-01-28T16:33:01.499Z,86.72
2019-01-28T16:35:29.255Z,86.41
2019-01-28T16:37:56.651Z,87.00
2019-01-28T16:40:25.641Z,85.89
2019-01-28T16:42:53.449Z,86.78
2019-01-28T16:45:21.041Z,87.35
2019-01-28T16:47:49.111Z,87.13
2019-01-28T16:50:26.714Z,86.60
2019-01-28T16:52:50.585Z,87.21
2019-01-28T16:55:18.790Z,85.30
2019-01-28T16:57:46.593Z,84.86
2019-01-28T17:00:24.989Z,86.63
2019-01-28T17:02:53.052Z,86.04
2019-01-28T17:05:20.946Z,86.67
2019-01-28T17:07:48.984Z,84.84
2019-01-28T17:10:17.341Z,86.85
2019-01-28T17:12:44.946Z,88.02
2019-01-28T17:15:14.295Z,86.58
2019-01-28T17:17:41.934Z,86.91
2019-01-28T17:20:14.336Z,86.93
2019-01-28T17:22:41.937Z,87.58
2019-01-28T17:25:13.196Z,86.96
2019-01-28T17:27:40.909Z,87.72
2019-01-28T17:30:18.073Z,86.47
2019-01-28T17:32:46.323Z,87.48
2019-01-28T17:35:13.837Z,87.47
2019-01-28T17:37:41.555Z,87.59
2019-01-28T17:40:11.023Z,87.21
2019-01-28T17:42:38.793Z,86.99
2019-01-28T17:45:10.461Z,86.76
2019-01-28T17:47:37.807Z,87.86
2019-01-28T17:50:07.510Z,86.63
2019-01-28T17:52:36.001Z,86.52
2019-01-28T17:55:04.303Z,85.91
2019-01-28T17:57:32.338Z,85.67
2019-01-28T17:59:59.999Z,85.73
2019-01-28T18:02:27.765Z,85.93
2019-01-28T18:04:55.181Z,86.41
2019-01-28T18:07:22.636Z,85.65
2019-01-28T18:09:50.029Z,84.77
2019-01-28T18:12:17.646Z,86.00
2019-01-28T18:14:46.228Z,86.59
2019-01-28T18:17:13.504Z,85.39
2019-01-28T18:19:41.357Z,84.38
2019-01-28T18:22:09.331Z,86.31
2019-01-28T18:24:36.555Z,86.83
2019-01-28T18:27:04.653Z,86.42
2019-01-28T18:29:32.003Z,87.04
2019-01-28T18:32:01.427Z,85.92
2019-01-28T18:34:28.934Z,85.50
2019-01-28T18:36:57.390Z,83.12
2019-01-28T18:39:24.975Z,85.93
2019-01-28T18:41:52.648Z,84.80
2019-01-28T18:44:19.884Z,85.27
2019-01-28T18:46:47.551Z,86.63
2019-01-28T18:49:15.585Z,86.24
2019-01-28T18:51:43.338Z,86.56
2019-01-28T18:54:11.179Z,86.50
2019-01-28T18:56:39.457Z,86.98
2019-01-28T18:59:06.958Z,85.77
2019-01-28T19:01:35.075Z,86.44
2019-01-28T19:04:03.192Z,86.24
2019-01-28T19:07:02.631Z,87.07
2019-01-28T19:09:37.571Z,86.13
2019-01-28T19:12:33.871Z,85.61
2019-01-28T19:15:20.332Z,86.56
2019-01-28T19:18:07.833Z,86.40
2019-01-28T19:20:40.921Z,86.53
2019-01-28T19:23:09.197Z,86.83
2019-01-28T19:25:36.903Z,86.87
2019-01-28T19:28:05.599Z,87.08
2019-01-28T19:30:33.587Z,87.03
2019-01-28T19:33:01.729Z,86.97
2019-01-28T19:35:29.762Z,87.04
2019-01-28T19:37:57.874Z,86.28
2019-01-28T19:40:26.566Z,86.66
2019-01-28T19:42:54.225Z,86.89
2019-01-28T19:45:22.168Z,86.77
2019-01-28T19:47:50.135Z,87.01
2019-01-28T19:50:20.907Z,86.12
2019-01-28T19:52:48.475Z,87.53
2019-01-28T19:55:16.323Z,87.31
2019-01-28T19:57:43.825Z,87.15
2019-01-28T20:00:21.507Z,86.78
2019-01-28T20:02:49.610Z,86.59
2019-01-28T20:05:17.030Z,85.89
2019-01-28T20:07:44.492Z,85.85
2019-01-28T20:10:12.609Z,85.45
2019-01-28T20:12:40.385Z,85.69
2019-01-28T20:15:14.109Z,85.98
2019-01-28T20:17:41.742Z,86.85
2019-01-28T20:20:11.743Z,85.60
2019-01-28T20:22:39.020Z,85.96
2019-01-28T20:25:08.221Z,86.21
2019-01-28T20:27:35.869Z,86.24
2019-01-28T20:30:09.133Z,86.15
2019-01-28T20:32:36.849Z,86.08
2019-01-28T20:35:05.596Z,86.44
2019-01-28T20:37:33.392Z,86.52
2019-01-28T20:40:00.548Z,86.09
2019-01-28T20:42:28.820Z,86.22
2019-01-28T20:44:56.887Z,85.87
2019-01-28T20:47:24.652Z,86.19
2019-01-28T20:49:52.117Z,85.86
2019-01-28T20:52:19.511Z,86.21
2019-01-28T20:54:46.883Z,85.09
2019-01-28T20:57:17.731Z,85.22
2019-01-28T20:59:45.133Z,85.40
2019-01-28T21:02:12.554Z,85.38
2019-01-28T21:04:40.066Z,85.34
2019-01-28T21:07:07.486Z,85.82
2019-01-28T21:09:34.875Z,85.36
2019-01-28T21:12:02.813Z,84.07
2019-01-28T21:14:30.982Z,85.29
2019-01-28T21:16:58.794Z,83.67
2019-01-28T21:19:26.058Z,85.44
2019-01-28T21:21:53.783Z,85.33
2019-01-28T21:24:21.699Z,84.16
2019-01-28T21:26:49.063Z,85.79
2019-01-28T21:29:17.112Z,84.71
2019-01-28T21:31:44.721Z,85.41
2019-01-28T21:34:13.064Z,84.35
2019-01-28T21:37:03.366Z,84.80
2019-01-28T21:39:30.937Z,84.10
2019-01-28T21:41:59.049Z,84.18
2019-01-28T21:44:26.452Z,85.44
2019-01-28T21:46:54.272Z,85.55
2019-01-28T21:49:22.505Z,85.45
2019-01-28T21:51:50.620Z,85.60
2019-01-28T21:54:18.696Z,86.10
2019-01-28T21:56:45.939Z,85.46
2019-01-28T21:59:13.541Z,86.31
2019-01-28T22:01:41.491Z,86.15
2019-01-28T22:04:09.602Z,84.67
2019-01-28T22:06:37.892Z,83.48
2019-01-28T22:09:08.287Z,83.70
2019-01-28T22:11:36.310Z,84.74
2019-01-28T22:14:04.345Z,85.28
2019-01-28T22:16:31.614Z,85.68
2019-01-28T22:18:59.306Z,84.99
2019-01-28T22:21:26.934Z,84.57
2019-01-28T22:23:54.763Z,85.94
2019-01-28T22:26:23.017Z,85.32
2019-01-28T22:28:50.815Z,85.03
2019-01-28T22:31:18.670Z,83.83
2019-01-28T22:33:46.216Z,84.90
2019-01-28T22:36:13.805Z,85.86
2019-01-28T22:38:41.570Z,85.44
2019-01-28T22:41:09.902Z,85.19
2019-01-28T22:43:37.736Z,85.11
2019-01-28T22:46:05.588Z,85.80
2019-01-28T22:48:32.857Z,84.71
2019-01-28T22:51:00.378Z,85.42
2019-01-28T22:53:27.864Z,85.69
2019-01-28T22:55:55.502Z,84.79
2019-01-28T22:58:22.850Z,86.02
2019-01-28T23:01:22.202Z,85.81
2019-01-28T23:03:49.881Z,85.57
2019-01-28T23:06:17.230Z,85.18
2019-01-28T23:08:45.429Z,84.61
2019-01-28T23:11:13.142Z,85.06
2019-01-28T23:13:40.531Z,85.18
2019-01-28T23:16:08.268Z,84.65
2019-01-28T23:18:35.745Z,85.57
2019-01-28T23:21:03.456Z,85.64
2019-01-28T23:23:30.930Z,84.43
2019-01-28T23:25:58.929Z,85.11
2019-01-28T23:28:26.917Z,85.69
2019-01-28T23:30:54.946Z,85.42
2019-01-28T23:33:22.969Z,84.92
2019-01-28T23:35:50.666Z,85.65
2019-01-28T23:38:18.078Z,85.62
2019-01-28T23:40:45.594Z,86.16
2019-01-28T23:43:12.823Z,86.34
2019-01-28T23:45:40.398Z,85.39
2019-01-28T23:48:08.484Z,85.60
2019-01-28T23:50:35.820Z,84.88
2019-01-28T23:53:03.877Z,85.34
2019-01-28T23:55:31.471Z,85.18
2019-01-28T23:57:59.378Z,85.16
